Time;durP1;ratioP1;P1;durP2;ratioP2;P2;SDS_P1;SDS_P2;PMS_P1;PMS_P2;Temp;Humidity;BMP_temperature;BMP_pressure;BME280_temperature;BME280_humidity;BME280_pressure;Samples;Min_cycle;Max_cycle;Signal;HPM_P1;HPM_P2
2023/06/22 00:00:24;;;;;;;12.87;11.87;;;23.50;99.90;;;;;;5072228;28;20479;-76
2023/06/22 00:02:51;;;;;;;13.17;12.07;;;23.50;99.90;;;;;;5087124;28;20472;-78
2023/06/22 00:05:19;;;;;;;16.03;14.63;;;23.50;99.90;;;;;;5083877;28;20527;-77
2023/06/22 00:07:46;;;;;;;12.10;11.10;;;23.50;99.90;;;;;;5066992;28;20473;-77
2023/06/22 00:10:13;;;;;;;14.90;13.80;;;23.40;99.90;;;;;;5090730;28;20527;-77
2023/06/22 00:12:40;;;;;;;15.90;14.53;;;23.40;99.90;;;;;;5085829;28;20458;-75
2023/06/22 00:15:07;;;;;;;15.87;14.70;;;23.40;99.90;;;;;;5092742;28;20524;-76
2023/06/22 00:17:36;;;;;;;14.47;13.27;;;23.30;99.90;;;;;;5092439;28;20587;-77
2023/06/22 00:20:10;;;;;;;13.10;12.10;;;23.30;99.90;;;;;;5082232;28;21013;-77
2023/06/22 00:22:39;;;;;;;13.83;12.73;;;23.30;99.90;;;;;;5092207;28;20825;-77
2023/06/22 00:25:08;;;;;;;13.43;12.43;;;23.30;99.90;;;;;;5092882;28;20469;-76
2023/06/22 00:27:36;;;;;;;13.27;12.13;;;23.30;99.90;;;;;;5092693;28;20473;-77
2023/06/22 00:30:07;;;;;;;15.17;13.77;;;23.30;99.90;;;;;;5092850;28;20461;-77
2023/06/22 00:32:36;;;;;;;14.47;13.17;;;23.20;99.90;;;;;;5055422;28;20467;-77
2023/06/22 00:35:03;;;;;;;17.40;15.87;;;23.20;99.90;;;;;;5059498;28;20463;-76
2023/06/22 00:37:30;;;;;;;14.97;13.87;;;23.20;99.90;;;;;;5052602;28;20617;-76
2023/06/22 00:39:57;;;;;;;12.33;11.43;;;23.10;99.90;;;;;;5052774;28;20516;-76
2023/06/22 00:42:24;;;;;;;15.93;14.50;;;23.10;99.90;;;;;;5052436;28;20535;-77
2023/06/22 00:44:52;;;;;;;13.30;12.30;;;23.10;99.90;;;;;;5063845;28;20474;-77
2023/06/22 00:47:19;;;;;;;16.80;15.50;;;23.10;99.90;;;;;;5055289;28;20471;-76
2023/06/22 00:49:50;;;;;;;14.33;13.23;;;23.00;99.90;;;;;;5055519;28;20558;-77
2023/06/22 00:52:20;;;;;;;14.60;13.40;;;23.00;99.90;;;;;;5055817;28;20463;-76
2023/06/22 00:54:50;;;;;;;12.37;11.47;;;23.00;99.90;;;;;;5055058;28;20511;-76
2023/06/22 00:57:18;;;;;;;13.97;12.87;;;23.00;99.90;;;;;;5074619;28;20959;-77
2023/06/22 00:59:45;;;;;;;13.70;12.63;;;23.00;99.90;;;;;;5075521;28;20463;-77
2023/06/22 01:02:15;;;;;;;12.37;11.37;;;22.90;99.90;;;;;;5075747;28;20466;-76
2023/06/22 01:04:42;;;;;;;11.23;10.43;;;22.90;99.90;;;;;;5074686;28;20470;-77
2023/06/22 01:07:22;;;;;;;12.00;11.10;;;22.90;99.90;;;;;;5075757;28;20565;-77
2023/06/22 01:09:58;;;;;;;14.33;13.13;;;22.90;99.90;;;;;;5073974;28;20489;-77
2023/06/22 01:12:33;;;;;;;14.23;12.70;;;22.80;99.90;;;;;;5075591;28;21225;-76
2023/06/22 01:15:10;;;;;;;13.07;12.07;;;22.80;99.90;;;;;;5074192;28;20591;-77
2023/06/22 01:17:44;;;;;;;12.37;11.10;;;22.80;99.90;;;;;;5074713;28;20467;-76
2023/06/22 01:20:13;;;;;;;14.90;13.40;;;22.80;99.90;;;;;;5075211;28;20472;-77
2023/06/22 01:22:58;;;;;;;12.60;11.67;;;22.80;99.90;;;;;;5074260;28;20471;-77
2023/06/22 01:25:32;;;;;;;14.53;12.73;;;22.80;99.90;;;;;;5064817;28;20482;-76
2023/06/22 01:28:16;;;;;;;13.03;12.03;;;22.80;99.90;;;;;;5053300;28;20470;-77
2023/06/22 01:30:47;;;;;;;14.30;13.13;;;22.70;99.90;;;;;;5058436;28;20490;-76
2023/06/22 01:33:16;;;;;;;14.47;13.37;;;22.70;99.90;;;;;;5075655;28;20477;-77
2023/06/22 01:35:46;;;;;;;12.83;11.73;;;22.70;99.90;;;;;;5074350;28;20470;-76
2023/06/22 01:38:14;;;;;;;13.73;12.50;;;22.60;99.90;;;;;;5074198;28;20516;-76
2023/06/22 01:40:41;;;;;;;12.23;11.13;;;22.60;99.90;;;;;;5067709;28;20852;-76
2023/06/22 01:43:09;;;;;;;14.70;13.50;;;22.60;99.90;;;;;;5062939;28;20782;-76
2023/06/22 01:45:40;;;;;;;13.70;12.53;;;22.60;99.90;;;;;;5054853;28;20483;-76
2023/06/22 01:48:09;;;;;;;13.47;12.17;;;22.60;99.90;;;;;;5051976;28;20464;-76
2023/06/22 01:50:36;;;;;;;13.83;12.57;;;22.60;99.90;;;;;;5054705;28;20559;-76
2023/06/22 01:53:05;;;;;;;13.60;12.50;;;22.50;99.90;;;;;;5053745;28;20468;-76
2023/06/22 01:55:32;;;;;;;13.63;12.63;;;22.50;99.90;;;;;;5056918;28;20463;-76
2023/06/22 01:57:59;;;;;;;13.80;12.70;;;22.50;99.90;;;;;;5065776;28;20481;-77
2023/06/22 02:00:29;;;;;;;13.93;12.73;;;22.50;99.90;;;;;;5063544;28;20501;-76
2023/06/22 02:03:03;;;;;;;13.57;12.47;;;22.50;99.90;;;;;;5056242;28;20486;-76
2023/06/22 02:05:37;;;;;;;15.13;13.60;;;22.50;99.90;;;;;;5054600;28;20472;-76
2023/06/22 02:08:10;;;;;;;14.37;13.27;;;22.40;99.90;;;;;;5053359;28;20466;-76
2023/06/22 02:10:40;;;;;;;13.83;12.77;;;22.40;99.90;;;;;;5071782;28;20822;-76
2023/06/22 02:13:09;;;;;;;16.13;14.70;;;22.40;99.90;;;;;;5058764;28;20463;-76
2023/06/22 02:15:37;;;;;;;13.77;12.60;;;22.40;99.90;;;;;;5069471;28;20536;-76
2023/06/22 02:18:05;;;;;;;13.87;12.77;;;22.40;99.90;;;;;;5072264;28;20469;-76
2023/06/22 02:20:34;;;;;;;16.00;14.50;;;22.40;99.90;;;;;;5073185;28;20462;-77
2023/06/22 02:23:01;;;;;;;16.33;14.93;;;22.30;99.90;;;;;;5072453;28;20952;-78
2023/06/22 02:25:28;;;;;;;14.70;13.30;;;22.30;99.90;;;;;;5064103;28;20467;-78
2023/06/22 02:27:55;;;;;;;15.70;14.40;;;22.30;99.90;;;;;;5052427;28;20467;-77
2023/06/22 02:30:22;;;;;;;17.10;15.37;;;22.30;99.90;;;;;;5054245;28;20475;-78
2023/06/22 02:32:57;;;;;;;16.80;15.30;;;22.30;99.90;;;;;;5073340;28;20467;-78
2023/06/22 02:35:24;;;;;;;15.90;14.50;;;22.30;99.90;;;;;;5073844;28;20446;-77
2023/06/22 02:37:55;;;;;;;15.40;14.00;;;22.30;99.90;;;;;;5064820;28;20454;-77
2023/06/22 02:40:24;;;;;;;18.00;16.40;;;22.30;99.90;;;;;;5073466;28;20453;-77
2023/06/22 02:42:51;;;;;;;19.97;18.27;;;22.30;99.90;;;;;;5074169;28;20465;-78
2023/06/22 02:45:18;;;;;;;18.63;17.00;;;22.30;99.90;;;;;;5072992;28;20500;-77
2023/06/22 02:47:47;;;;;;;16.90;15.50;;;22.30;99.90;;;;;;5063387;28;20468;-77
2023/06/22 02:50:14;;;;;;;16.97;15.47;;;22.30;99.90;;;;;;5052347;28;20537;-77
2023/06/22 02:52:46;;;;;;;17.70;16.20;;;22.30;99.90;;;;;;5059294;28;20550;-78
2023/06/22 02:55:14;;;;;;;19.83;18.17;;;22.30;99.90;;;;;;5074599;28;20877;-77
2023/06/22 02:57:46;;;;;;;17.23;15.90;;;22.30;99.90;;;;;;5073892;28;20478;-78
2023/06/22 03:03:03;;;;;;;20.60;18.80;;;22.30;99.90;;;;;;5064437;28;20484;-78
2023/06/22 03:05:32;;;;;;;16.73;15.33;;;22.30;99.90;;;;;;5071738;28;20574;-78
2023/06/22 03:07:59;;;;;;;15.80;14.40;;;22.30;99.90;;;;;;5073132;28;20500;-77
2023/06/22 03:10:27;;;;;;;18.13;16.60;;;22.30;99.90;;;;;;5077268;28;20543;-78
2023/06/22 03:12:55;;;;;;;17.37;15.70;;;22.30;99.90;;;;;;5073419;28;20532;-78
2023/06/22 03:15:22;;;;;;;18.23;16.83;;;22.30;99.90;;;;;;5071691;28;20531;-78
2023/06/22 03:17:52;;;;;;;17.07;15.67;;;22.30;99.90;;;;;;5070935;28;20549;-77
2023/06/22 03:20:20;;;;;;;16.53;15.23;;;22.40;99.90;;;;;;5072839;28;20754;-77
2023/06/22 03:22:48;;;;;;;21.97;18.70;;;22.40;99.90;;;;;;5073396;28;20831;-77
2023/06/22 03:25:16;;;;;;;19.17;17.27;;;22.40;99.90;;;;;;5072442;28;20474;-78
2023/06/22 03:27:45;;;;;;;16.67;15.10;;;22.30;99.90;;;;;;5073403;28;20479;-78
2023/06/22 03:30:13;;;;;;;19.63;17.77;;;22.40;99.90;;;;;;5073438;28;20476;-77
2023/06/22 03:32:40;;;;;;;18.87;17.23;;;22.40;99.90;;;;;;5073396;28;20450;-77
2023/06/22 03:35:08;;;;;;;17.20;15.43;;;22.40;99.90;;;;;;5073206;28;21014;-77
2023/06/22 03:37:36;;;;;;;15.53;14.13;;;22.40;99.90;;;;;;5072776;28;20512;-78
2023/06/22 03:40:07;;;;;;;15.23;13.73;;;22.40;99.90;;;;;;5073018;28;20462;-77
2023/06/22 03:42:35;;;;;;;14.30;13.00;;;22.40;99.90;;;;;;5072371;28;20553;-77
2023/06/22 03:45:04;;;;;;;13.87;12.57;;;22.40;99.90;;;;;;5074204;28;20466;-78
2023/06/22 03:47:32;;;;;;;14.87;13.53;;;22.40;99.90;;;;;;5073519;28;20469;-77
2023/06/22 03:49:59;;;;;;;14.20;13.00;;;22.50;99.90;;;;;;5073961;28;20473;-77
2023/06/22 03:52:26;;;;;;;14.83;13.67;;;22.50;99.90;;;;;;5073197;28;20528;-77
2023/06/22 03:54:56;;;;;;;14.90;13.57;;;22.50;99.90;;;;;;5073670;28;20474;-77
2023/06/22 03:57:23;;;;;;;13.57;12.40;;;22.40;99.90;;;;;;5073863;28;20477;-78
2023/06/22 03:59:51;;;;;;;12.00;10.97;;;22.40;99.90;;;;;;5073301;28;20497;-77
2023/06/22 04:02:19;;;;;;;12.83;11.67;;;22.40;99.90;;;;;;5073053;28;20481;-77
2023/06/22 04:04:46;;;;;;;12.23;11.00;;;22.40;99.90;;;;;;5072856;28;20478;-77
2023/06/22 04:07:14;;;;;;;11.50;10.40;;;22.40;99.90;;;;;;5073145;28;20466;-77
2023/06/22 04:09:44;;;;;;;11.33;10.43;;;22.40;99.90;;;;;;5061345;28;20777;-78
2023/06/22 04:12:14;;;;;;;11.50;10.60;;;22.40;99.90;;;;;;5072645;28;20509;-77
2023/06/22 04:14:44;;;;;;;11.00;10.10;;;22.40;99.90;;;;;;5073064;28;20458;-77
2023/06/22 04:17:15;;;;;;;12.57;11.20;;;22.50;99.90;;;;;;5072758;28;20550;-78
2023/06/22 04:19:44;;;;;;;12.83;11.73;;;22.50;99.90;;;;;;5076385;28;20828;-77
2023/06/22 04:22:11;;;;;;;10.57;9.77;;;22.50;99.90;;;;;;5075435;28;20952;-77
2023/06/22 04:24:39;;;;;;;13.20;12.00;;;22.50;99.90;;;;;;5076175;28;20473;-78
2023/06/22 04:27:06;;;;;;;11.63;10.63;;;22.60;99.90;;;;;;5073923;28;20569;-79
2023/06/22 04:29:33;;;;;;;13.77;12.47;;;22.60;99.90;;;;;;5076120;28;20463;-77
2023/06/22 04:32:02;;;;;;;12.20;11.20;;;22.60;99.90;;;;;;5074956;28;20512;-77
2023/06/22 04:34:30;;;;;;;10.87;9.83;;;22.70;99.90;;;;;;5066334;28;21510;-77
2023/06/22 04:37:01;;;;;;;12.33;11.30;;;22.70;99.90;;;;;;5075576;28;20475;-78
2023/06/22 04:39:28;;;;;;;10.27;9.47;;;22.70;99.90;;;;;;5075802;28;20501;-78
2023/06/22 04:42:00;;;;;;;11.60;10.50;;;22.80;99.90;;;;;;5076233;28;20501;-78
2023/06/22 04:44:27;;;;;;;9.83;9.03;;;22.90;99.90;;;;;;5067191;28;20508;-78
2023/06/22 04:46:59;;;;;;;9.73;8.97;;;22.90;99.90;;;;;;5089153;28;20566;-78
2023/06/22 04:49:32;;;;;;;9.63;8.73;;;22.90;99.90;;;;;;5075523;28;20482;-79
2023/06/22 04:52:01;;;;;;;9.60;8.73;;;23.00;99.90;;;;;;5075386;28;20819;-78
2023/06/22 04:54:28;;;;;;;8.47;7.77;;;23.00;99.90;;;;;;5074647;28;20477;-78
2023/06/22 04:56:57;;;;;;;8.60;7.80;;;23.10;99.90;;;;;;5075501;28;20471;-78
2023/06/22 04:59:27;;;;;;;10.60;8.80;;;23.10;99.90;;;;;;5074920;28;20502;-78
2023/06/22 05:01:55;;;;;;;8.70;7.83;;;23.10;99.90;;;;;;5075229;28;20472;-77
2023/06/22 05:04:23;;;;;;;8.50;7.70;;;23.20;99.90;;;;;;5075351;28;20996;-78
2023/06/22 05:06:50;;;;;;;6.90;6.40;;;23.30;99.90;;;;;;5075520;28;20780;-78
2023/06/22 05:09:18;;;;;;;7.97;7.30;;;23.40;99.90;;;;;;5074739;28;20482;-79
2023/06/22 05:11:45;;;;;;;6.97;6.47;;;23.40;99.90;;;;;;5077387;28;20826;-78
2023/06/22 05:14:14;;;;;;;7.47;6.73;;;23.60;99.90;;;;;;5070709;28;20505;-78
2023/06/22 05:16:47;;;;;;;7.43;6.73;;;23.70;99.90;;;;;;5074559;28;20932;-78
2023/06/22 05:19:17;;;;;;;7.73;7.03;;;23.70;99.90;;;;;;5074962;28;20971;-77
2023/06/22 05:21:44;;;;;;;8.07;7.37;;;23.80;99.90;;;;;;5073788;28;20527;-77
2023/06/22 05:24:11;;;;;;;7.37;6.77;;;23.80;99.90;;;;;;5074791;28;20470;-78
2023/06/22 05:26:40;;;;;;;7.80;7.10;;;23.80;99.90;;;;;;5073564;28;20511;-78
2023/06/22 05:29:07;;;;;;;6.47;5.97;;;23.90;99.90;;;;;;5073743;28;20561;-77
2023/06/22 05:31:47;;;;;;;8.47;6.17;;;23.90;99.90;;;;;;5074256;28;20781;-77
2023/06/22 05:34:14;;;;;;;5.93;5.43;;;23.90;99.90;;;;;;5065012;28;20501;-77
2023/06/22 05:36:43;;;;;;;6.07;5.57;;;24.00;99.90;;;;;;5066152;28;20956;-77
2023/06/22 05:39:14;;;;;;;5.70;5.20;;;24.00;99.90;;;;;;5087810;28;20553;-76
2023/06/22 05:41:47;;;;;;;7.10;6.10;;;24.10;99.90;;;;;;5074200;28;20467;-76
2023/06/22 05:44:21;;;;;;;6.23;5.47;;;24.10;99.90;;;;;;5071864;28;20466;-76
2023/06/22 05:46:48;;;;;;;7.90;5.77;;;24.20;99.90;;;;;;5073472;28;20466;-77
2023/06/22 05:49:16;;;;;;;6.47;5.87;;;24.20;99.90;;;;;;5074306;28;20482;-78
2023/06/22 05:51:43;;;;;;;5.00;4.60;;;24.20;99.90;;;;;;5075237;28;20539;-76
2023/06/22 05:54:15;;;;;;;5.57;4.97;;;24.30;99.90;;;;;;5073774;28;20501;-76
2023/06/22 05:56:43;;;;;;;5.60;4.50;;;24.30;99.90;;;;;;5073897;28;20588;-76
2023/06/22 06:02:21;;;;;;;6.33;4.93;;;24.50;99.90;;;;;;5069621;28;20472;-77
2023/06/22 06:04:48;;;;;;;8.30;7.63;;;24.60;99.90;;;;;;5074342;28;20505;-76
2023/06/22 06:07:37;;;;;;;5.90;5.40;;;24.60;99.90;;;;;;5064669;28;20481;-77
2023/06/22 06:10:06;;;;;;;5.83;5.30;;;24.70;99.90;;;;;;5086769;28;20473;-77
2023/06/22 06:12:35;;;;;;;5.87;5.37;;;24.80;99.90;;;;;;5074517;28;20478;-76
2023/06/22 06:15:04;;;;;;;6.57;5.97;;;24.80;99.90;;;;;;5057688;28;20474;-78
2023/06/22 06:17:31;;;;;;;9.03;4.90;;;24.90;99.90;;;;;;5074458;28;20476;-77
2023/06/22 06:20:04;;;;;;;7.77;5.17;;;24.90;99.90;;;;;;5074127;28;20466;-77
2023/06/22 06:22:32;;;;;;;6.93;5.63;;;25.00;99.90;;;;;;5068087;28;20478;-77
2023/06/22 06:24:59;;;;;;;6.23;5.63;;;25.10;99.90;;;;;;5085649;28;20538;-77
2023/06/22 06:27:46;;;;;;;5.67;5.27;;;25.20;99.90;;;;;;5073802;28;21011;-77
2023/06/22 06:30:17;;;;;;;8.60;5.07;;;25.30;99.90;;;;;;5061996;28;20467;-76
2023/06/22 06:32:45;;;;;;;5.90;4.97;;;25.40;99.90;;;;;;5076510;28;20446;-76
2023/06/22 06:35:14;;;;;;;6.73;6.13;;;25.60;99.90;;;;;;5074142;28;20914;-76
2023/06/22 06:37:43;;;;;;;16.63;7.07;;;25.80;99.90;;;;;;5074229;28;20513;-76
2023/06/22 06:40:14;;;;;;;7.10;5.83;;;25.90;99.90;;;;;;5073434;28;20816;-76
2023/06/22 06:42:44;;;;;;;6.40;4.77;;;26.10;99.90;;;;;;5073513;28;20462;-76
2023/06/22 06:45:12;;;;;;;5.93;5.47;;;26.20;99.90;;;;;;5069138;28;20509;-76
2023/06/22 06:47:43;;;;;;;6.57;5.50;;;26.30;99.90;;;;;;5084171;28;20954;-76
2023/06/22 06:50:14;;;;;;;5.77;5.23;;;26.40;99.90;;;;;;5073914;28;20474;-76
2023/06/22 06:52:43;;;;;;;5.50;5.00;;;26.50;99.90;;;;;;5073399;28;20535;-76
2023/06/22 06:55:11;;;;;;;8.03;5.60;;;26.60;99.90;;;;;;5073774;28;20831;-76
2023/06/22 06:57:41;;;;;;;5.60;5.10;;;26.60;99.90;;;;;;5073364;28;20451;-76
2023/06/22 07:00:13;;;;;;;8.93;8.23;;;26.70;99.90;;;;;;5073775;28;20485;-76
2023/06/22 07:03:12;;;;;;;7.40;6.80;;;26.90;99.90;;;;;;5064820;28;20542;-76
2023/06/22 07:05:39;;;;;;;5.20;4.70;;;27.10;99.90;;;;;;5073169;28;20805;-76
2023/06/22 07:08:06;;;;;;;4.57;4.27;;;27.20;99.90;;;;;;5058910;28;20478;-78
2023/06/22 07:10:33;;;;;;;6.17;5.63;;;27.30;99.90;;;;;;5073140;28;20795;-77
2023/06/22 07:13:01;;;;;;;8.13;5.00;;;27.40;99.90;;;;;;5069155;28;20473;-77
2023/06/22 07:15:30;;;;;;;8.40;4.30;;;27.60;99.90;;;;;;5082698;28;20537;-77
2023/06/22 07:18:02;;;;;;;5.07;4.60;;;27.70;98.70;;;;;;5073638;28;20470;-77
2023/06/22 07:20:30;;;;;;;4.13;3.80;;;27.80;96.90;;;;;;5064008;28;20477;-77
2023/06/22 07:23:00;;;;;;;4.87;3.60;;;27.90;96.00;;;;;;5088230;28;20906;-78
2023/06/22 07:25:30;;;;;;;5.20;4.23;;;27.90;96.10;;;;;;5079660;28;20476;-78
2023/06/22 07:28:02;;;;;;;3.40;3.20;;;28.00;96.10;;;;;;5073977;28;20539;-78
2023/06/22 07:30:29;;;;;;;3.77;3.43;;;28.00;94.50;;;;;;5063256;28;20470;-77
2023/06/22 07:33:02;;;;;;;5.43;3.97;;;28.20;94.70;;;;;;5073500;28;20462;-78
2023/06/22 07:35:33;;;;;;;4.70;3.90;;;28.30;94.30;;;;;;5072395;28;20486;-78
2023/06/22 07:38:00;;;;;;;4.00;3.70;;;28.30;94.00;;;;;;5075375;28;20477;-78
2023/06/22 07:40:27;;;;;;;5.17;4.67;;;28.40;93.80;;;;;;5076773;28;20474;-77
2023/06/22 07:42:58;;;;;;;5.20;4.00;;;28.50;93.90;;;;;;5072557;28;20478;-78
2023/06/22 07:45:25;;;;;;;4.30;3.90;;;28.50;93.00;;;;;;5073475;28;20473;-78
2023/06/22 07:47:53;;;;;;;6.87;6.17;;;28.50;92.10;;;;;;5073295;28;20607;-78
2023/06/22 07:50:22;;;;;;;5.17;4.37;;;28.70;92.30;;;;;;5073071;28;20536;-78
2023/06/22 07:52:52;;;;;;;4.30;4.00;;;28.70;92.10;;;;;;5080141;28;20483;-79
2023/06/22 07:55:21;;;;;;;4.17;3.77;;;28.80;91.40;;;;;;5077189;28;20474;-78
2023/06/22 07:57:51;;;;;;;4.70;4.40;;;28.90;92.20;;;;;;5068049;28;20525;-78
2023/06/22 08:00:20;;;;;;;5.00;4.70;;;29.00;91.30;;;;;;5077798;28;20474;-78
2023/06/22 08:02:48;;;;;;;5.93;4.50;;;29.00;90.80;;;;;;5076542;28;20865;-78
2023/06/22 08:05:17;;;;;;;3.30;3.00;;;29.00;91.10;;;;;;5078654;28;20846;-78
2023/06/22 08:07:44;;;;;;;3.67;3.37;;;29.00;89.90;;;;;;5076415;28;20479;-78
2023/06/22 08:10:16;;;;;;;3.80;3.30;;;29.00;88.80;;;;;;5078418;28;20964;-78
2023/06/22 08:12:43;;;;;;;3.70;3.40;;;28.90;87.70;;;;;;5077223;28;20489;-79
2023/06/22 08:15:11;;;;;;;4.17;3.50;;;28.90;87.90;;;;;;5076909;28;20466;-77
2023/06/22 08:17:38;;;;;;;4.43;4.00;;;28.90;89.10;;;;;;5078018;28;20505;-78
2023/06/22 08:20:11;;;;;;;3.50;3.20;;;28.90;88.40;;;;;;5075697;28;20530;-77
2023/06/22 08:22:42;;;;;;;4.87;4.37;;;28.90;88.70;;;;;;5081315;28;20528;-77
2023/06/22 08:25:10;;;;;;;6.03;4.00;;;28.90;88.20;;;;;;5076356;28;20470;-77
2023/06/22 08:27:39;;;;;;;6.70;3.20;;;28.80;87.80;;;;;;5075972;28;20994;-77
2023/06/22 08:30:08;;;;;;;4.60;4.17;;;28.80;87.40;;;;;;5076074;28;20473;-77
2023/06/22 08:32:39;;;;;;;5.20;4.43;;;28.70;87.60;;;;;;5076233;28;20595;-77
2023/06/22 08:35:11;;;;;;;4.70;4.30;;;28.60;87.30;;;;;;5076058;28;20476;-76
2023/06/22 08:37:39;;;;;;;5.10;4.23;;;28.50;88.00;;;;;;5076561;28;20478;-77
2023/06/22 08:40:10;;;;;;;3.50;3.20;;;28.50;87.70;;;;;;5075756;28;20474;-77
2023/06/22 08:42:44;;;;;;;6.83;3.43;;;28.40;87.30;;;;;;5071614;28;20465;-75
2023/06/22 08:45:12;;;;;;;3.60;3.33;;;28.40;86.40;;;;;;5085184;28;20480;-76
2023/06/22 08:47:39;;;;;;;3.93;3.63;;;28.30;87.00;;;;;;5075830;28;21039;-76
2023/06/22 08:50:08;;;;;;;5.10;3.33;;;28.20;87.40;;;;;;5082006;28;20859;-77
2023/06/22 08:52:35;;;;;;;4.40;3.83;;;28.20;87.80;;;;;;5069903;28;20540;-77
2023/06/22 08:55:05;;;;;;;3.80;3.40;;;28.10;86.50;;;;;;5083396;28;20521;-77
2023/06/22 08:57:32;;;;;;;4.03;3.70;;;28.10;85.60;;;;;;5082397;28;20499;-77
2023/06/22 09:00:07;;;;;;;4.80;4.13;;;28.10;85.40;;;;;;5075867;28;20472;-77
2023/06/22 09:02:40;;;;;;;5.27;4.30;;;28.00;85.80;;;;;;5074631;28;20931;-77
2023/06/22 09:08:36;;;;;;;4.57;4.17;;;28.00;86.60;;;;;;5059162;28;20471;-77
2023/06/22 09:11:04;;;;;;;3.70;3.40;;;27.90;87.40;;;;;;5074851;28;20565;-77
2023/06/22 09:13:41;;;;;;;4.90;4.50;;;28.00;87.50;;;;;;5075558;28;20468;-76
2023/06/22 09:16:11;;;;;;;4.47;4.07;;;28.00;87.20;;;;;;5072130;28;20487;-77
2023/06/22 09:18:43;;;;;;;4.10;3.80;;;28.10;86.70;;;;;;5075710;28;20947;-77
2023/06/22 09:21:23;;;;;;;4.50;3.90;;;28.20;86.50;;;;;;5064919;28;20481;-77
2023/06/22 09:23:51;;;;;;;4.53;4.13;;;28.10;86.70;;;;;;5073584;28;20500;-77
2023/06/22 09:26:18;;;;;;;4.33;3.93;;;28.20;86.50;;;;;;5085491;28;20480;-77
2023/06/22 09:28:45;;;;;;;6.63;4.20;;;28.20;85.80;;;;;;5075546;28;20529;-77
2023/06/22 09:31:13;;;;;;;4.90;4.50;;;28.10;85.00;;;;;;5074812;28;20484;-77
2023/06/22 09:33:41;;;;;;;4.50;4.10;;;28.20;84.80;;;;;;5065388;28;20484;-77
2023/06/22 09:36:08;;;;;;;4.87;4.20;;;28.20;84.80;;;;;;5094402;28;21012;-77
2023/06/22 09:38:58;;;;;;;4.27;3.57;;;28.20;85.60;;;;;;5084016;28;20471;-77
2023/06/22 09:42:24;;;;;;;3.77;3.43;;;28.30;84.10;;;;;;5100193;28;20476;-77
2023/06/22 09:44:53;;;;;;;5.80;3.63;;;28.30;83.60;;;;;;5058229;28;20462;-77
2023/06/22 09:47:29;;;;;;;5.23;3.17;;;28.20;82.60;;;;;;5078442;28;20470;-77
2023/06/22 09:49:56;;;;;;;3.60;3.30;;;28.20;81.70;;;;;;5091351;28;20518;-77
2023/06/22 09:52:25;;;;;;;4.83;3.40;;;28.20;79.80;;;;;;5081515;28;20479;-77
2023/06/22 09:54:52;;;;;;;4.13;3.73;;;28.20;80.80;;;;;;5094798;28;20468;-77
2023/06/22 09:57:21;;;;;;;4.13;3.73;;;28.10;81.70;;;;;;5094789;28;20975;-77
2023/06/22 09:59:48;;;;;;;4.90;4.40;;;28.10;82.00;;;;;;5095062;28;20476;-77
2023/06/22 10:02:15;;;;;;;3.97;3.67;;;28.20;82.10;;;;;;5094354;28;20529;-77
2023/06/22 10:05:08;;;;;;;4.07;3.77;;;28.10;82.50;;;;;;5094197;28;20475;-76
2023/06/22 10:07:39;;;;;;;4.13;3.80;;;28.10;82.40;;;;;;5094229;28;20471;-77
2023/06/22 10:10:07;;;;;;;3.97;3.67;;;28.20;83.00;;;;;;5095063;28;20496;-76
2023/06/22 10:12:34;;;;;;;4.10;3.70;;;28.10;82.40;;;;;;5094414;28;20503;-78
2023/06/22 10:15:01;;;;;;;3.00;2.80;;;28.20;82.70;;;;;;5094732;28;20472;-77
2023/06/22 10:17:30;;;;;;;5.10;4.00;;;28.20;83.00;;;;;;5083024;28;20472;-77
2023/06/22 10:20:10;;;;;;;4.23;3.90;;;28.20;83.50;;;;;;5084288;28;20557;-77
2023/06/22 10:22:42;;;;;;;10.70;4.60;;;28.20;83.90;;;;;;5093760;28;20472;-78
2023/06/22 10:25:10;;;;;;;7.10;4.77;;;28.20;84.30;;;;;;5094750;28;20472;-76
2023/06/22 10:28:12;;;;;;;4.97;4.20;;;28.30;83.90;;;;;;5078361;28;20477;-76
2023/06/22 10:30:41;;;;;;;4.57;4.17;;;28.40;83.90;;;;;;5087084;28;20464;-77
2023/06/22 10:33:09;;;;;;;4.77;4.40;;;28.50;84.00;;;;;;5092240;28;20468;-77
2023/06/22 10:35:38;;;;;;;4.73;4.33;;;28.50;83.20;;;;;;5094548;28;20473;-76
2023/06/22 10:38:06;;;;;;;5.03;4.50;;;28.50;83.80;;;;;;5093435;28;20476;-76
2023/06/22 10:40:34;;;;;;;5.20;4.70;;;28.60;84.20;;;;;;5094637;28;20518;-77
2023/06/22 10:43:03;;;;;;;4.30;3.90;;;28.70;84.30;;;;;;5093885;28;20954;-78
2023/06/22 10:45:31;;;;;;;4.30;4.03;;;28.70;82.80;;;;;;5094077;28;20495;-77
2023/06/22 10:47:58;;;;;;;4.77;4.47;;;28.70;82.90;;;;;;5083080;28;20515;-77
2023/06/22 10:50:26;;;;;;;4.77;4.47;;;28.80;83.70;;;;;;5093778;28;20769;-77
2023/06/22 10:52:56;;;;;;;5.87;5.27;;;28.90;84.50;;;;;;5093967;28;20473;-77
2023/06/22 10:55:23;;;;;;;4.80;4.50;;;28.80;82.80;;;;;;5094005;28;20550;-77
2023/06/22 10:57:52;;;;;;;4.23;3.97;;;28.80;83.10;;;;;;5094580;28;20525;-77
2023/06/22 11:00:21;;;;;;;4.53;4.20;;;28.70;82.50;;;;;;5093662;28;20959;-76
2023/06/22 11:02:48;;;;;;;5.63;4.17;;;28.80;82.70;;;;;;5083360;28;20461;-77
2023/06/22 11:05:21;;;;;;;5.00;4.00;;;28.70;82.90;;;;;;5093354;28;20485;-77
2023/06/22 11:07:49;;;;;;;4.73;4.23;;;28.70;83.10;;;;;;5094052;28;20468;-77
2023/06/22 11:10:19;;;;;;;4.77;4.37;;;28.70;83.40;;;;;;5093539;28;20804;-77
2023/06/22 11:12:51;;;;;;;4.67;4.20;;;28.70;83.50;;;;;;5093992;28;20475;-77
2023/06/22 11:15:30;;;;;;;;;;;;;;;;;;;;;
2023/06/22 11:18:00;;;;;;;5.17;4.77;;;28.70;82.90;;;;;;5093652;28;20467;-76
2023/06/22 11:20:27;;;;;;;4.97;4.47;;;28.80;82.30;;;;;;5084238;28;20475;-76
2023/06/22 11:22:54;;;;;;;4.00;3.80;;;28.80;81.00;;;;;;5093965;28;20546;-76
2023/06/22 11:25:23;;;;;;;5.27;4.70;;;28.80;81.50;;;;;;5092367;28;20473;-77
2023/06/22 11:27:53;;;;;;;4.70;4.40;;;28.80;81.70;;;;;;5093314;28;20943;-76
2023/06/22 11:30:27;;;;;;;5.03;4.63;;;28.70;81.50;;;;;;5092974;28;20473;-78
2023/06/22 11:32:56;;;;;;;4.60;4.30;;;28.80;81.60;;;;;;5093722;28;20523;-78
2023/06/22 11:35:29;;;;;;;5.67;4.60;;;28.70;81.10;;;;;;5092158;28;20500;-78
2023/06/22 11:38:05;;;;;;;5.20;4.70;;;28.80;81.70;;;;;;5093248;28;20515;-77
2023/06/22 11:40:56;;;;;;;5.50;5.10;;;28.90;81.90;;;;;;5093036;28;21006;-77
2023/06/22 11:43:23;;;;;;;4.83;4.43;;;29.00;81.20;;;;;;5091078;28;20543;-78
2023/06/22 11:45:55;;;;;;;4.40;4.10;;;29.10;80.70;;;;;;5081777;28;20869;-78
2023/06/22 11:48:25;;;;;;;4.20;3.90;;;29.00;79.40;;;;;;5067604;28;20602;-78
2023/06/22 11:50:52;;;;;;;4.43;4.03;;;29.10;79.70;;;;;;5066133;28;20521;-78
2023/06/22 11:53:19;;;;;;;4.70;4.30;;;29.10;79.60;;;;;;5055223;28;20474;-78
2023/06/22 11:55:51;;;;;;;5.70;5.10;;;29.20;79.70;;;;;;5055401;28;20899;-77
2023/06/22 11:58:19;;;;;;;5.13;4.30;;;29.20;79.80;;;;;;5072143;28;20466;-78
2023/06/22 12:00:46;;;;;;;7.70;4.50;;;29.20;79.60;;;;;;5052392;28;20485;-78
2023/06/22 12:03:16;;;;;;;4.90;4.60;;;29.20;79.40;;;;;;5067561;28;20817;-78
2023/06/22 12:05:46;;;;;;;4.37;4.07;;;29.10;79.00;;;;;;5071189;28;20470;-78
2023/06/22 12:08:15;;;;;;;4.50;4.20;;;29.10;79.00;;;;;;5072812;28;20540;-78
2023/06/22 12:10:43;;;;;;;4.83;4.53;;;29.00;79.30;;;;;;5072867;28;20470;-77
2023/06/22 12:13:11;;;;;;;4.93;4.63;;;29.00;78.90;;;;;;5072247;28;20523;-76
2023/06/22 12:15:39;;;;;;;5.20;4.80;;;29.00;79.20;;;;;;5070573;28;20474;-77
2023/06/22 12:18:06;;;;;;;5.60;4.70;;;29.10;79.40;;;;;;5073366;28;20884;-77
2023/06/22 12:20:46;;;;;;;5.07;4.67;;;29.00;78.90;;;;;;5057879;28;20492;-78
2023/06/22 12:23:13;;;;;;;6.67;4.90;;;29.00;78.50;;;;;;5085487;28;20478;-77
2023/06/22 12:25:46;;;;;;;5.40;4.90;;;29.00;78.90;;;;;;5072329;28;20474;-77
2023/06/22 12:28:13;;;;;;;4.73;4.33;;;29.10;78.70;;;;;;5073130;28;20470;-79
2023/06/22 12:30:41;;;;;;;5.87;4.20;;;29.10;78.90;;;;;;5062335;28;20830;-78
2023/06/22 12:33:11;;;;;;;4.03;3.73;;;29.10;78.50;;;;;;5088097;28;20466;-78
2023/06/22 12:35:46;;;;;;;4.60;4.30;;;29.10;78.70;;;;;;5070237;28;20538;-78
2023/06/22 12:38:13;;;;;;;4.27;3.97;;;29.00;79.20;;;;;;5069656;28;20551;-78
2023/06/22 12:40:42;;;;;;;4.83;4.43;;;29.10;79.70;;;;;;5076048;28;20490;-78
2023/06/22 12:43:11;;;;;;;5.20;4.80;;;29.10;79.70;;;;;;5076267;28;20520;-78
2023/06/22 12:45:38;;;;;;;5.43;4.93;;;29.00;78.50;;;;;;5075885;28;20480;-78
2023/06/22 12:48:08;;;;;;;7.13;5.20;;;29.10;78.60;;;;;;5075904;28;20461;-78
2023/06/22 12:50:37;;;;;;;5.40;4.90;;;29.10;78.30;;;;;;5058316;28;20489;-78
2023/06/22 12:53:06;;;;;;;5.30;4.80;;;29.10;78.00;;;;;;5066423;28;20843;-78
2023/06/22 12:55:39;;;;;;;4.63;4.23;;;29.00;78.50;;;;;;5065769;28;20474;-77
2023/06/22 12:58:06;;;;;;;4.50;4.10;;;29.10;79.00;;;;;;5075558;28;20468;-78
2023/06/22 13:00:34;;;;;;;5.23;4.83;;;29.00;79.20;;;;;;5072731;28;20466;-78
2023/06/22 13:03:04;;;;;;;4.43;3.83;;;29.00;78.90;;;;;;5075498;28;20498;-78